sensor_id;sensor_type;location;lat;lon;timestamp;P1;durP1;ratioP1;P2;durP2;ratioP2
10667;SDS011;5382;42.136;24.796;2023-03-25T00:01:42;14.90;;;10.25;;
10667;SDS011;5382;42.136;24.796;2023-03-25T00:04:11;12.73;;;9.10;;
10667;SDS011;5382;42.136;24.796;2023-03-25T00:06:37;13.63;;;9.48;;
10667;SDS011;5382;42.136;24.796;2023-03-25T00:09:04;14.98;;;9.02;;
10667;SDS011;5382;42.136;24.796;2023-03-25T00:11:31;18.85;;;9.20;;
10667;SDS011;5382;42.136;24.796;2023-03-25T00:13:58;13.50;;;9.15;;
10667;SDS011;5382;42.136;24.796;2023-03-25T00:16:25;12.30;;;8.40;;
10667;SDS011;5382;42.136;24.796;2023-03-25T00:18:52;11.50;;;8.07;;
10667;SDS011;5382;42.136;24.796;2023-03-25T00:21:20;13.15;;;8.75;;
10667;SDS011;5382;42.136;24.796;2023-03-25T00:23:47;8.07;;;7.03;;
10667;SDS011;5382;42.136;24.796;2023-03-25T00:26:14;13.10;;;8.38;;
10667;SDS011;5382;42.136;24.796;2023-03-25T00:28:41;10.45;;;8.15;;
10667;SDS011;5382;42.136;24.796;2023-03-25T00:31:09;11.55;;;7.68;;
10667;SDS011;5382;42.136;24.796;2023-03-25T00:33:38;10.43;;;6.82;;
10667;SDS011;5382;42.136;24.796;2023-03-25T00:36:07;11.30;;;6.75;;
10667;SDS011;5382;42.136;24.796;2023-03-25T00:38:39;9.63;;;7.45;;
10667;SDS011;5382;42.136;24.796;2023-03-25T00:41:10;9.82;;;6.70;;
10667;SDS011;5382;42.136;24.796;2023-03-25T00:43:41;10.05;;;7.28;;
10667;SDS011;5382;42.136;24.796;2023-03-25T00:46:08;10.68;;;6.57;;
10667;SDS011;5382;42.136;24.796;2023-03-25T00:48:35;11.95;;;7.18;;
10667;SDS011;5382;42.136;24.796;2023-03-25T00:51:02;9.70;;;6.38;;
10667;SDS011;5382;42.136;24.796;2023-03-25T00:53:32;10.15;;;6.68;;
10667;SDS011;5382;42.136;24.796;2023-03-25T00:56:01;10.30;;;6.95;;
10667;SDS011;5382;42.136;24.796;2023-03-25T00:58:28;11.48;;;6.50;;
10667;SDS011;5382;42.136;24.796;2023-03-25T01:00:55;8.10;;;6.25;;
10667;SDS011;5382;42.136;24.796;2023-03-25T01:03:22;11.73;;;6.35;;
10667;SDS011;5382;42.136;24.796;2023-03-25T01:05:49;9.90;;;7.32;;
10667;SDS011;5382;42.136;24.796;2023-03-25T01:08:18;11.15;;;8.20;;
10667;SDS011;5382;42.136;24.796;2023-03-25T01:10:49;9.85;;;6.97;;
10667;SDS011;5382;42.136;24.796;2023-03-25T01:13:19;11.32;;;6.97;;
10667;SDS011;5382;42.136;24.796;2023-03-25T01:15:46;13.27;;;8.00;;
10667;SDS011;5382;42.136;24.796;2023-03-25T01:18:13;11.55;;;8.88;;
10667;SDS011;5382;42.136;24.796;2023-03-25T01:20:40;14.20;;;7.95;;
10667;SDS011;5382;42.136;24.796;2023-03-25T01:23:07;15.07;;;8.25;;
10667;SDS011;5382;42.136;24.796;2023-03-25T01:25:34;11.38;;;7.85;;
10667;SDS011;5382;42.136;24.796;2023-03-25T01:28:02;10.60;;;8.55;;
10667;SDS011;5382;42.136;24.796;2023-03-25T01:30:30;13.60;;;9.60;;
10667;SDS011;5382;42.136;24.796;2023-03-25T01:32:57;12.70;;;9.32;;
10667;SDS011;5382;42.136;24.796;2023-03-25T01:35:24;11.02;;;7.70;;
10667;SDS011;5382;42.136;24.796;2023-03-25T01:37:51;15.98;;;9.13;;
10667;SDS011;5382;42.136;24.796;2023-03-25T01:40:19;16.33;;;9.73;;
10667;SDS011;5382;42.136;24.796;2023-03-25T01:42:48;21.85;;;9.05;;
10667;SDS011;5382;42.136;24.796;2023-03-25T01:45:18;12.73;;;8.95;;
10667;SDS011;5382;42.136;24.796;2023-03-25T01:47:53;15.07;;;9.18;;
10667;SDS011;5382;42.136;24.796;2023-03-25T01:50:24;14.10;;;10.93;;
10667;SDS011;5382;42.136;24.796;2023-03-25T01:52:53;12.82;;;10.15;;
10667;SDS011;5382;42.136;24.796;2023-03-25T01:55:21;15.68;;;10.50;;
10667;SDS011;5382;42.136;24.796;2023-03-25T01:57:52;16.98;;;10.70;;
10667;SDS011;5382;42.136;24.796;2023-03-25T02:00:21;11.88;;;9.73;;
10667;SDS011;5382;42.136;24.796;2023-03-25T02:02:50;16.42;;;10.45;;
10667;SDS011;5382;42.136;24.796;2023-03-25T02:05:24;14.63;;;10.77;;
10667;SDS011;5382;42.136;24.796;2023-03-25T02:07:57;17.35;;;11.40;;
10667;SDS011;5382;42.136;24.796;2023-03-25T02:10:25;13.75;;;9.68;;
10667;SDS011;5382;42.136;24.796;2023-03-25T02:12:51;15.35;;;10.35;;
10667;SDS011;5382;42.136;24.796;2023-03-25T02:15:18;12.73;;;9.80;;
10667;SDS011;5382;42.136;24.796;2023-03-25T02:17:49;15.52;;;10.57;;
10667;SDS011;5382;42.136;24.796;2023-03-25T02:26:41;17.27;;;10.48;;
10667;SDS011;5382;42.136;24.796;2023-03-25T02:29:47;14.80;;;9.15;;
10667;SDS011;5382;42.136;24.796;2023-03-25T02:32:27;11.68;;;9.13;;
10667;SDS011;5382;42.136;24.796;2023-03-25T02:35:25;13.93;;;9.45;;
10667;SDS011;5382;42.136;24.796;2023-03-25T02:38:09;13.25;;;9.68;;
10667;SDS011;5382;42.136;24.796;2023-03-25T02:40:44;22.35;;;10.50;;
10667;SDS011;5382;42.136;24.796;2023-03-25T02:43:14;13.50;;;9.75;;
10667;SDS011;5382;42.136;24.796;2023-03-25T02:45:48;13.13;;;10.07;;
10667;SDS011;5382;42.136;24.796;2023-03-25T02:48:18;12.77;;;9.50;;
10667;SDS011;5382;42.136;24.796;2023-03-25T02:50:50;12.27;;;8.20;;
10667;SDS011;5382;42.136;24.796;2023-03-25T02:53:22;13.63;;;9.40;;
10667;SDS011;5382;42.136;24.796;2023-03-25T02:55:52;13.10;;;8.98;;
10667;SDS011;5382;42.136;24.796;2023-03-25T02:58:24;13.27;;;9.25;;
10667;SDS011;5382;42.136;24.796;2023-03-25T03:00:54;11.82;;;9.38;;
10667;SDS011;5382;42.136;24.796;2023-03-25T03:03:22;12.63;;;8.23;;
10667;SDS011;5382;42.136;24.796;2023-03-25T03:05:50;12.73;;;8.70;;
10667;SDS011;5382;42.136;24.796;2023-03-25T03:08:27;16.48;;;10.48;;
10667;SDS011;5382;42.136;24.796;2023-03-25T03:11:09;17.40;;;10.40;;
10667;SDS011;5382;42.136;24.796;2023-03-25T03:13:48;15.02;;;10.70;;
10667;SDS011;5382;42.136;24.796;2023-03-25T03:16:27;17.15;;;12.00;;
10667;SDS011;5382;42.136;24.796;2023-03-25T03:19:01;15.15;;;10.75;;
10667;SDS011;5382;42.136;24.796;2023-03-25T03:21:39;15.73;;;11.15;;
10667;SDS011;5382;42.136;24.796;2023-03-25T03:24:13;21.85;;;10.77;;
10667;SDS011;5382;42.136;24.796;2023-03-25T03:26:46;18.08;;;10.75;;
10667;SDS011;5382;42.136;24.796;2023-03-25T03:29:19;18.58;;;12.30;;
10667;SDS011;5382;42.136;24.796;2023-03-25T03:31:53;17.15;;;11.07;;
10667;SDS011;5382;42.136;24.796;2023-03-25T03:34:27;19.65;;;11.43;;
10667;SDS011;5382;42.136;24.796;2023-03-25T03:36:58;18.65;;;11.35;;
10667;SDS011;5382;42.136;24.796;2023-03-25T03:39:30;22.38;;;12.30;;
10667;SDS011;5382;42.136;24.796;2023-03-25T03:42:00;20.50;;;12.23;;
10667;SDS011;5382;42.136;24.796;2023-03-25T03:44:32;18.73;;;11.73;;
10667;SDS011;5382;42.136;24.796;2023-03-25T03:47:03;18.70;;;11.77;;
10667;SDS011;5382;42.136;24.796;2023-03-25T03:49:34;21.23;;;12.13;;
10667;SDS011;5382;42.136;24.796;2023-03-25T03:52:05;19.02;;;11.45;;
10667;SDS011;5382;42.136;24.796;2023-03-25T03:54:37;22.65;;;13.70;;
10667;SDS011;5382;42.136;24.796;2023-03-25T03:57:09;20.27;;;12.32;;
10667;SDS011;5382;42.136;24.796;2023-03-25T03:59:44;26.75;;;13.73;;
10667;SDS011;5382;42.136;24.796;2023-03-25T04:02:18;18.50;;;13.13;;
10667;SDS011;5382;42.136;24.796;2023-03-25T04:04:51;19.90;;;13.85;;
10667;SDS011;5382;42.136;24.796;2023-03-25T04:07:20;21.17;;;13.63;;
10667;SDS011;5382;42.136;24.796;2023-03-25T04:09:52;20.77;;;14.50;;
10667;SDS011;5382;42.136;24.796;2023-03-25T04:12:27;22.58;;;14.90;;
10667;SDS011;5382;42.136;24.796;2023-03-25T04:14:59;26.58;;;15.02;;
10667;SDS011;5382;42.136;24.796;2023-03-25T04:17:27;24.75;;;14.60;;
10667;SDS011;5382;42.136;24.796;2023-03-25T04:19:57;23.48;;;14.75;;
10667;SDS011;5382;42.136;24.796;2023-03-25T04:22:24;23.33;;;14.40;;
10667;SDS011;5382;42.136;24.796;2023-03-25T04:24:52;22.65;;;14.95;;
10667;SDS011;5382;42.136;24.796;2023-03-25T04:27:20;27.08;;;16.80;;
10667;SDS011;5382;42.136;24.796;2023-03-25T04:29:48;28.27;;;14.63;;
10667;SDS011;5382;42.136;24.796;2023-03-25T04:32:16;24.25;;;15.25;;
10667;SDS011;5382;42.136;24.796;2023-03-25T04:34:43;25.73;;;15.27;;
10667;SDS011;5382;42.136;24.796;2023-03-25T04:37:11;24.13;;;15.98;;
10667;SDS011;5382;42.136;24.796;2023-03-25T04:39:38;27.15;;;14.45;;
10667;SDS011;5382;42.136;24.796;2023-03-25T04:42:06;19.60;;;15.25;;
10667;SDS011;5382;42.136;24.796;2023-03-25T04:44:33;22.33;;;15.45;;
10667;SDS011;5382;42.136;24.796;2023-03-25T04:47:03;23.75;;;15.93;;
10667;SDS011;5382;42.136;24.796;2023-03-25T04:49:31;25.08;;;16.88;;
10667;SDS011;5382;42.136;24.796;2023-03-25T04:51:58;23.48;;;15.43;;
10667;SDS011;5382;42.136;24.796;2023-03-25T04:54:26;19.83;;;12.77;;
10667;SDS011;5382;42.136;24.796;2023-03-25T04:56:53;18.33;;;14.23;;
10667;SDS011;5382;42.136;24.796;2023-03-25T04:59:21;15.77;;;11.45;;
10667;SDS011;5382;42.136;24.796;2023-03-25T05:01:48;14.07;;;10.38;;
10667;SDS011;5382;42.136;24.796;2023-03-25T05:04:17;17.75;;;11.20;;
10667;SDS011;5382;42.136;24.796;2023-03-25T05:06:45;16.90;;;10.57;;
10667;SDS011;5382;42.136;24.796;2023-03-25T05:09:15;19.33;;;12.18;;
10667;SDS011;5382;42.136;24.796;2023-03-25T05:11:43;22.95;;;15.15;;
10667;SDS011;5382;42.136;24.796;2023-03-25T05:14:12;21.40;;;15.05;;
10667;SDS011;5382;42.136;24.796;2023-03-25T05:16:41;24.10;;;15.20;;
10667;SDS011;5382;42.136;24.796;2023-03-25T05:19:09;20.23;;;13.65;;
10667;SDS011;5382;42.136;24.796;2023-03-25T05:21:36;17.48;;;11.18;;
10667;SDS011;5382;42.136;24.796;2023-03-25T05:24:05;15.85;;;12.52;;
10667;SDS011;5382;42.136;24.796;2023-03-25T05:26:34;24.75;;;14.90;;
10667;SDS011;5382;42.136;24.796;2023-03-25T05:29:02;25.55;;;15.15;;
10667;SDS011;5382;42.136;24.796;2023-03-25T05:31:29;25.80;;;14.05;;
10667;SDS011;5382;42.136;24.796;2023-03-25T05:33:58;23.77;;;15.25;;
10667;SDS011;5382;42.136;24.796;2023-03-25T05:36:24;21.05;;;14.43;;
10667;SDS011;5382;42.136;24.796;2023-03-25T05:38:51;19.13;;;13.48;;
10667;SDS011;5382;42.136;24.796;2023-03-25T05:41:19;20.58;;;14.45;;
10667;SDS011;5382;42.136;24.796;2023-03-25T05:43:57;20.75;;;13.73;;
10667;SDS011;5382;42.136;24.796;2023-03-25T05:46:24;21.13;;;14.55;;
10667;SDS011;5382;42.136;24.796;2023-03-25T05:48:52;21.10;;;13.25;;
10667;SDS011;5382;42.136;24.796;2023-03-25T05:51:21;23.92;;;14.68;;
10667;SDS011;5382;42.136;24.796;2023-03-25T05:53:49;22.38;;;13.98;;
10667;SDS011;5382;42.136;24.796;2023-03-25T05:56:16;26.15;;;15.60;;
10667;SDS011;5382;42.136;24.796;2023-03-25T05:58:43;21.13;;;13.30;;
10667;SDS011;5382;42.136;24.796;2023-03-25T06:01:10;22.63;;;13.82;;
10667;SDS011;5382;42.136;24.796;2023-03-25T06:03:39;24.77;;;16.63;;
10667;SDS011;5382;42.136;24.796;2023-03-25T06:06:11;23.40;;;15.30;;
10667;SDS011;5382;42.136;24.796;2023-03-25T06:08:44;23.02;;;14.52;;
10667;SDS011;5382;42.136;24.796;2023-03-25T06:11:11;21.27;;;14.35;;
10667;SDS011;5382;42.136;24.796;2023-03-25T06:13:39;19.17;;;15.23;;
10667;SDS011;5382;42.136;24.796;2023-03-25T06:16:07;26.45;;;17.00;;
10667;SDS011;5382;42.136;24.796;2023-03-25T06:18:34;21.15;;;14.80;;
10667;SDS011;5382;42.136;24.796;2023-03-25T06:21:01;23.08;;;17.13;;
10667;SDS011;5382;42.136;24.796;2023-03-25T06:23:30;20.63;;;16.15;;
10667;SDS011;5382;42.136;24.796;2023-03-25T06:26:00;24.92;;;14.90;;
10667;SDS011;5382;42.136;24.796;2023-03-25T06:28:28;22.05;;;13.02;;
10667;SDS011;5382;42.136;24.796;2023-03-25T06:30:55;18.33;;;11.50;;
10667;SDS011;5382;42.136;24.796;2023-03-25T06:33:22;19.77;;;13.27;;
10667;SDS011;5382;42.136;24.796;2023-03-25T06:35:49;21.40;;;15.30;;
10667;SDS011;5382;42.136;24.796;2023-03-25T06:38:18;20.35;;;14.25;;
10667;SDS011;5382;42.136;24.796;2023-03-25T06:40:45;18.23;;;14.63;;
10667;SDS011;5382;42.136;24.796;2023-03-25T06:43:14;17.40;;;12.25;;
10667;SDS011;5382;42.136;24.796;2023-03-25T06:45:41;14.25;;;11.32;;
10667;SDS011;5382;42.136;24.796;2023-03-25T06:48:08;18.00;;;13.02;;
10667;SDS011;5382;42.136;24.796;2023-03-25T06:50:35;16.77;;;13.57;;
10667;SDS011;5382;42.136;24.796;2023-03-25T06:53:01;20.40;;;13.07;;
10667;SDS011;5382;42.136;24.796;2023-03-25T06:55:28;21.58;;;12.80;;
10667;SDS011;5382;42.136;24.796;2023-03-25T06:57:55;16.77;;;12.27;;
10667;SDS011;5382;42.136;24.796;2023-03-25T07:00:23;23.33;;;11.85;;
10667;SDS011;5382;42.136;24.796;2023-03-25T07:02:52;14.70;;;9.13;;
10667;SDS011;5382;42.136;24.796;2023-03-25T07:05:19;17.88;;;11.80;;
10667;SDS011;5382;42.136;24.796;2023-03-25T07:07:46;14.55;;;11.18;;
10667;SDS011;5382;42.136;24.796;2023-03-25T07:10:13;11.80;;;9.75;;
10667;SDS011;5382;42.136;24.796;2023-03-25T07:12:40;13.27;;;9.75;;
10667;SDS011;5382;42.136;24.796;2023-03-25T07:15:07;14.63;;;10.48;;
10667;SDS011;5382;42.136;24.796;2023-03-25T07:17:36;13.30;;;8.43;;
10667;SDS011;5382;42.136;24.796;2023-03-25T07:20:03;10.43;;;7.88;;
10667;SDS011;5382;42.136;24.796;2023-03-25T07:22:31;9.30;;;8.15;;
10667;SDS011;5382;42.136;24.796;2023-03-25T07:24:58;10.25;;;8.20;;
10667;SDS011;5382;42.136;24.796;2023-03-25T07:27:25;8.98;;;6.10;;
10667;SDS011;5382;42.136;24.796;2023-03-25T07:29:52;10.48;;;7.88;;
10667;SDS011;5382;42.136;24.796;2023-03-25T07:32:19;9.50;;;8.43;;
10667;SDS011;5382;42.136;24.796;2023-03-25T07:34:47;13.27;;;8.25;;
10667;SDS011;5382;42.136;24.796;2023-03-25T07:37:14;11.00;;;8.82;;
10667;SDS011;5382;42.136;24.796;2023-03-25T07:39:41;9.80;;;8.82;;
10667;SDS011;5382;42.136;24.796;2023-03-25T07:42:08;10.13;;;6.95;;
10667;SDS011;5382;42.136;24.796;2023-03-25T07:44:35;10.43;;;8.75;;
10667;SDS011;5382;42.136;24.796;2023-03-25T07:47:02;8.45;;;7.38;;
10667;SDS011;5382;42.136;24.796;2023-03-25T07:49:29;9.27;;;7.43;;
10667;SDS011;5382;42.136;24.796;2023-03-25T07:51:57;11.15;;;7.32;;
10667;SDS011;5382;42.136;24.796;2023-03-25T07:54:23;8.27;;;6.88;;
10667;SDS011;5382;42.136;24.796;2023-03-25T07:56:50;7.38;;;6.68;;
10667;SDS011;5382;42.136;24.796;2023-03-25T07:59:19;8.27;;;7.13;;
10667;SDS011;5382;42.136;24.796;2023-03-25T08:01:46;8.43;;;7.25;;
10667;SDS011;5382;42.136;24.796;2023-03-25T08:04:13;11.30;;;7.43;;
10667;SDS011;5382;42.136;24.796;2023-03-25T08:06:39;7.85;;;7.05;;
10667;SDS011;5382;42.136;24.796;2023-03-25T08:09:07;11.20;;;7.95;;
10667;SDS011;5382;42.136;24.796;2023-03-25T08:11:35;10.68;;;7.95;;
10667;SDS011;5382;42.136;24.796;2023-03-25T08:14:02;10.30;;;7.70;;
10667;SDS011;5382;42.136;24.796;2023-03-25T08:16:28;10.60;;;8.80;;
10667;SDS011;5382;42.136;24.796;2023-03-25T08:18:55;12.52;;;7.82;;
10667;SDS011;5382;42.136;24.796;2023-03-25T08:21:22;15.25;;;9.60;;
10667;SDS011;5382;42.136;24.796;2023-03-25T08:23:51;10.85;;;8.20;;
10667;SDS011;5382;42.136;24.796;2023-03-25T08:26:23;10.55;;;8.30;;
10667;SDS011;5382;42.136;24.796;2023-03-25T08:28:51;11.50;;;9.00;;
10667;SDS011;5382;42.136;24.796;2023-03-25T08:31:19;14.07;;;9.00;;
10667;SDS011;5382;42.136;24.796;2023-03-25T08:33:48;10.30;;;8.77;;
10667;SDS011;5382;42.136;24.796;2023-03-25T08:36:15;11.13;;;8.95;;
10667;SDS011;5382;42.136;24.796;2023-03-25T08:38:44;9.80;;;8.85;;
10667;SDS011;5382;42.136;24.796;2023-03-25T08:41:11;10.40;;;8.80;;
10667;SDS011;5382;42.136;24.796;2023-03-25T08:43:39;12.82;;;9.00;;
10667;SDS011;5382;42.136;24.796;2023-03-25T08:46:06;10.88;;;8.70;;
10667;SDS011;5382;42.136;24.796;2023-03-25T08:48:33;13.98;;;8.63;;
10667;SDS011;5382;42.136;24.796;2023-03-25T08:50:59;9.77;;;7.78;;
10667;SDS011;5382;42.136;24.796;2023-03-25T08:53:27;10.98;;;7.93;;
10667;SDS011;5382;42.136;24.796;2023-03-25T08:55:54;8.68;;;7.65;;
10667;SDS011;5382;42.136;24.796;2023-03-25T08:58:22;10.05;;;7.88;;
10667;SDS011;5382;42.136;24.796;2023-03-25T09:00:51;13.10;;;8.02;;
10667;SDS011;5382;42.136;24.796;2023-03-25T09:03:20;9.35;;;7.20;;
10667;SDS011;5382;42.136;24.796;2023-03-25T09:05:47;12.85;;;8.23;;
10667;SDS011;5382;42.136;24.796;2023-03-25T09:08:15;9.77;;;8.02;;
10667;SDS011;5382;42.136;24.796;2023-03-25T09:10:42;9.73;;;8.25;;
10667;SDS011;5382;42.136;24.796;2023-03-25T09:13:08;9.20;;;8.23;;
10667;SDS011;5382;42.136;24.796;2023-03-25T09:15:35;9.18;;;8.25;;
10667;SDS011;5382;42.136;24.796;2023-03-25T09:18:03;9.48;;;8.45;;
10667;SDS011;5382;42.136;24.796;2023-03-25T09:20:31;11.82;;;7.90;;
10667;SDS011;5382;42.136;24.796;2023-03-25T09:22:58;13.23;;;7.95;;
10667;SDS011;5382;42.136;24.796;2023-03-25T09:25:25;9.23;;;8.25;;
10667;SDS011;5382;42.136;24.796;2023-03-25T09:27:52;8.98;;;8.05;;
10667;SDS011;5382;42.136;24.796;2023-03-25T09:30:19;12.05;;;8.07;;
10667;SDS011;5382;42.136;24.796;2023-03-25T09:32:46;9.52;;;7.90;;
10667;SDS011;5382;42.136;24.796;2023-03-25T09:35:14;9.10;;;7.82;;
10667;SDS011;5382;42.136;24.796;2023-03-25T09:37:41;9.35;;;7.82;;
10667;SDS011;5382;42.136;24.796;2023-03-25T09:40:10;8.15;;;7.43;;
10667;SDS011;5382;42.136;24.796;2023-03-25T09:42:45;8.65;;;7.30;;
10667;SDS011;5382;42.136;24.796;2023-03-25T09:45:23;10.55;;;7.60;;
10667;SDS011;5382;42.136;24.796;2023-03-25T09:47:57;9.98;;;7.35;;
10667;SDS011;5382;42.136;24.796;2023-03-25T09:50:30;9.93;;;7.18;;
10667;SDS011;5382;42.136;24.796;2023-03-25T09:53:00;8.45;;;7.32;;
10667;SDS011;5382;42.136;24.796;2023-03-25T09:55:31;7.78;;;6.90;;
10667;SDS011;5382;42.136;24.796;2023-03-25T09:58:03;8.55;;;7.38;;
10667;SDS011;5382;42.136;24.796;2023-03-25T10:00:50;8.00;;;6.80;;
10667;SDS011;5382;42.136;24.796;2023-03-25T10:03:23;7.95;;;6.88;;
10667;SDS011;5382;42.136;24.796;2023-03-25T10:06:00;8.10;;;7.40;;
10667;SDS011;5382;42.136;24.796;2023-03-25T10:08:39;7.75;;;7.05;;
10667;SDS011;5382;42.136;24.796;2023-03-25T10:11:14;10.25;;;7.22;;
10667;SDS011;5382;42.136;24.796;2023-03-25T10:13:49;9.20;;;6.82;;
10667;SDS011;5382;42.136;24.796;2023-03-25T10:16:25;9.60;;;6.90;;
10667;SDS011;5382;42.136;24.796;2023-03-25T10:19:01;8.13;;;7.18;;
10667;SDS011;5382;42.136;24.796;2023-03-25T10:21:43;8.57;;;6.85;;
10667;SDS011;5382;42.136;24.796;2023-03-25T10:24:16;8.77;;;6.63;;
10667;SDS011;5382;42.136;24.796;2023-03-25T10:26:46;7.18;;;6.47;;
10667;SDS011;5382;42.136;24.796;2023-03-25T10:29:16;7.55;;;6.00;;
10667;SDS011;5382;42.136;24.796;2023-03-25T10:31:49;6.82;;;6.10;;
10667;SDS011;5382;42.136;24.796;2023-03-25T10:34:18;7.28;;;6.28;;
10667;SDS011;5382;42.136;24.796;2023-03-25T10:36:50;6.55;;;5.95;;
10667;SDS011;5382;42.136;24.796;2023-03-25T10:39:22;13.55;;;6.90;;
10667;SDS011;5382;42.136;24.796;2023-03-25T10:42:02;6.35;;;5.75;;
10667;SDS011;5382;42.136;24.796;2023-03-25T10:44:38;7.95;;;6.32;;
10667;SDS011;5382;42.136;24.796;2023-03-25T10:47:05;9.23;;;5.60;;
10667;SDS011;5382;42.136;24.796;2023-03-25T10:49:36;8.40;;;6.45;;
10667;SDS011;5382;42.136;24.796;2023-03-25T10:52:08;6.63;;;5.75;;
10667;SDS011;5382;42.136;24.796;2023-03-25T10:54:35;7.57;;;6.20;;
10667;SDS011;5382;42.136;24.796;2023-03-25T10:57:06;7.03;;;5.97;;
10667;SDS011;5382;42.136;24.796;2023-03-25T10:59:36;9.50;;;5.50;;
10667;SDS011;5382;42.136;24.796;2023-03-25T11:02:11;6.60;;;5.90;;
10667;SDS011;5382;42.136;24.796;2023-03-25T11:04:41;6.13;;;5.40;;
10667;SDS011;5382;42.136;24.796;2023-03-25T11:07:14;7.78;;;5.35;;
10667;SDS011;5382;42.136;24.796;2023-03-25T11:09:44;7.30;;;5.80;;
10667;SDS011;5382;42.136;24.796;2023-03-25T11:12:10;8.50;;;6.07;;
10667;SDS011;5382;42.136;24.796;2023-03-25T11:14:38;7.13;;;5.80;;
10667;SDS011;5382;42.136;24.796;2023-03-25T11:17:06;7.65;;;5.65;;
10667;SDS011;5382;42.136;24.796;2023-03-25T11:19:41;6.00;;;5.50;;
10667;SDS011;5382;42.136;24.796;2023-03-25T11:22:15;6.15;;;5.55;;
10667;SDS011;5382;42.136;24.796;2023-03-25T11:24:46;8.00;;;5.07;;
10667;SDS011;5382;42.136;24.796;2023-03-25T11:27:16;6.97;;;5.53;;
10667;SDS011;5382;42.136;24.796;2023-03-25T11:29:48;5.78;;;4.72;;
10667;SDS011;5382;42.136;24.796;2023-03-25T11:32:31;6.35;;;5.53;;
10667;SDS011;5382;42.136;24.796;2023-03-25T11:34:59;7.65;;;5.47;;
10667;SDS011;5382;42.136;24.796;2023-03-25T11:37:29;6.38;;;4.97;;
10667;SDS011;5382;42.136;24.796;2023-03-25T11:39:59;10.63;;;7.25;;
10667;SDS011;5382;42.136;24.796;2023-03-25T11:42:31;6.30;;;5.25;;
10667;SDS011;5382;42.136;24.796;2023-03-25T11:45:00;5.95;;;5.35;;
10667;SDS011;5382;42.136;24.796;2023-03-25T11:47:29;6.45;;;5.13;;
10667;SDS011;5382;42.136;24.796;2023-03-25T11:49:57;6.20;;;5.60;;
10667;SDS011;5382;42.136;24.796;2023-03-25T11:52:27;10.13;;;5.35;;
10667;SDS011;5382;42.136;24.796;2023-03-25T11:55:01;5.88;;;5.28;;
10667;SDS011;5382;42.136;24.796;2023-03-25T11:57:30;7.45;;;5.25;;
10667;SDS011;5382;42.136;24.796;2023-03-25T12:00:04;6.68;;;5.00;;
10667;SDS011;5382;42.136;24.796;2023-03-25T12:02:37;10.15;;;4.85;;
10667;SDS011;5382;42.136;24.796;2023-03-25T12:05:10;4.70;;;4.22;;
10667;SDS011;5382;42.136;24.796;2023-03-25T12:07:41;5.07;;;4.50;;
10667;SDS011;5382;42.136;24.796;2023-03-25T12:10:15;6.22;;;4.53;;
10667;SDS011;5382;42.136;24.796;2023-03-25T12:12:48;7.47;;;4.68;;
10667;SDS011;5382;42.136;24.796;2023-03-25T12:15:26;4.60;;;4.20;;
10667;SDS011;5382;42.136;24.796;2023-03-25T12:18:08;4.75;;;4.35;;
10667;SDS011;5382;42.136;24.796;2023-03-25T12:20:53;60.45;;;7.80;;
10667;SDS011;5382;42.136;24.796;2023-03-25T12:23:31;4.85;;;3.63;;
10667;SDS011;5382;42.136;24.796;2023-03-25T12:26:09;5.60;;;4.30;;
10667;SDS011;5382;42.136;24.796;2023-03-25T12:31:30;6.43;;;3.95;;
10667;SDS011;5382;42.136;24.796;2023-03-25T12:34:08;4.15;;;3.85;;
10667;SDS011;5382;42.136;24.796;2023-03-25T12:36:47;4.38;;;3.92;;
10667;SDS011;5382;42.136;24.796;2023-03-25T12:39:31;4.53;;;4.13;;
10667;SDS011;5382;42.136;24.796;2023-03-25T12:42:09;3.88;;;3.35;;
10667;SDS011;5382;42.136;24.796;2023-03-25T12:44:50;4.03;;;3.67;;
10667;SDS011;5382;42.136;24.796;2023-03-25T12:47:31;4.40;;;4.00;;
10667;SDS011;5382;42.136;24.796;2023-03-25T12:50:10;4.07;;;3.72;;
10667;SDS011;5382;42.136;24.796;2023-03-25T12:52:55;4.13;;;3.72;;
10667;SDS011;5382;42.136;24.796;2023-03-25T12:55:39;3.78;;;3.42;;
10667;SDS011;5382;42.136;24.796;2023-03-25T12:58:23;4.70;;;3.50;;
10667;SDS011;5382;42.136;24.796;2023-03-25T13:01:09;5.05;;;3.67;;
10667;SDS011;5382;42.136;24.796;2023-03-25T13:03:57;4.03;;;3.65;;
10667;SDS011;5382;42.136;24.796;2023-03-25T13:06:33;4.72;;;4.00;;
10667;SDS011;5382;42.136;24.796;2023-03-25T13:09:08;6.40;;;3.78;;
10667;SDS011;5382;42.136;24.796;2023-03-25T13:11:39;5.63;;;3.65;;
10667;SDS011;5382;42.136;24.796;2023-03-25T13:14:14;4.60;;;3.90;;
10667;SDS011;5382;42.136;24.796;2023-03-25T13:16:46;4.82;;;3.95;;
10667;SDS011;5382;42.136;24.796;2023-03-25T13:19:16;6.38;;;3.90;;
10667;SDS011;5382;42.136;24.796;2023-03-25T13:21:48;6.95;;;4.07;;
10667;SDS011;5382;42.136;24.796;2023-03-25T13:24:18;6.65;;;4.18;;
10667;SDS011;5382;42.136;24.796;2023-03-25T13:26:50;6.78;;;4.10;;
10667;SDS011;5382;42.136;24.796;2023-03-25T13:29:22;4.82;;;3.95;;
10667;SDS011;5382;42.136;24.796;2023-03-25T13:31:53;5.28;;;3.90;;
10667;SDS011;5382;42.136;24.796;2023-03-25T13:34:25;5.07;;;3.97;;
10667;SDS011;5382;42.136;24.796;2023-03-25T13:37:07;4.78;;;3.97;;
10667;SDS011;5382;42.136;24.796;2023-03-25T13:39:47;4.45;;;3.83;;
10667;SDS011;5382;42.136;24.796;2023-03-25T13:42:23;4.93;;;4.03;;
10667;SDS011;5382;42.136;24.796;2023-03-25T13:44:54;4.35;;;3.70;;
10667;SDS011;5382;42.136;24.796;2023-03-25T13:47:24;6.53;;;4.78;;
10667;SDS011;5382;42.136;24.796;2023-03-25T13:49:56;6.03;;;4.00;;
10667;SDS011;5382;42.136;24.796;2023-03-25T13:52:27;6.18;;;4.20;;
10667;SDS011;5382;42.136;24.796;2023-03-25T13:55:00;4.22;;;3.83;;
10667;SDS011;5382;42.136;24.796;2023-03-25T14:00:47;7.60;;;4.30;;
10667;SDS011;5382;42.136;24.796;2023-03-25T14:06:40;4.00;;;3.60;;
10667;SDS011;5382;42.136;24.796;2023-03-25T14:12:26;15.55;;;4.28;;
10667;SDS011;5382;42.136;24.796;2023-03-25T14:14:57;5.40;;;3.88;;
10667;SDS011;5382;42.136;24.796;2023-03-25T14:17:29;4.03;;;3.70;;
10667;SDS011;5382;42.136;24.796;2023-03-25T14:20:00;3.95;;;3.60;;
10667;SDS011;5382;42.136;24.796;2023-03-25T14:22:34;4.72;;;3.80;;
10667;SDS011;5382;42.136;24.796;2023-03-25T14:25:11;3.75;;;3.40;;
10667;SDS011;5382;42.136;24.796;2023-03-25T14:27:47;4.43;;;3.25;;
10667;SDS011;5382;42.136;24.796;2023-03-25T14:30:17;4.20;;;3.40;;
10667;SDS011;5382;42.136;24.796;2023-03-25T14:32:47;4.22;;;3.45;;
10667;SDS011;5382;42.136;24.796;2023-03-25T14:38:20;4.85;;;4.35;;
10667;SDS011;5382;42.136;24.796;2023-03-25T14:44:20;4.43;;;4.00;;
10667;SDS011;5382;42.136;24.796;2023-03-25T14:46:57;6.72;;;3.97;;
10667;SDS011;5382;42.136;24.796;2023-03-25T14:49:45;5.05;;;3.70;;
10667;SDS011;5382;42.136;24.796;2023-03-25T14:52:14;5.30;;;4.10;;
10667;SDS011;5382;42.136;24.796;2023-03-25T14:54:44;4.68;;;3.70;;
10667;SDS011;5382;42.136;24.796;2023-03-25T14:57:17;5.40;;;4.10;;
10667;SDS011;5382;42.136;24.796;2023-03-25T14:59:49;10.70;;;4.40;;
10667;SDS011;5382;42.136;24.796;2023-03-25T15:02:19;6.05;;;3.85;;
10667;SDS011;5382;42.136;24.796;2023-03-25T15:04:52;6.05;;;4.25;;
10667;SDS011;5382;42.136;24.796;2023-03-25T15:07:41;7.07;;;4.25;;
10667;SDS011;5382;42.136;24.796;2023-03-25T15:10:21;7.80;;;3.90;;
10667;SDS011;5382;42.136;24.796;2023-03-25T15:12:52;4.38;;;3.97;;
10667;SDS011;5382;42.136;24.796;2023-03-25T15:15:27;5.57;;;4.75;;
10667;SDS011;5382;42.136;24.796;2023-03-25T15:17:56;5.15;;;4.30;;
10667;SDS011;5382;42.136;24.796;2023-03-25T15:25:53;6.32;;;3.33;;
10667;SDS011;5382;42.136;24.796;2023-03-25T15:28:25;4.70;;;3.40;;